Tropical Cyclones
[Index]
Main Index Home Page Stock Weather Photos Extreme Storms Discussion Storm News and Storm Chasing Reports Tropical Cyclones / Hurricanes / Typhoons Weather Data and Links Wild Fires / Bushfires Weather Observation Techniques Weather Picture Catalogue Tornado Pictures and Reports Stock Video Footage and DVDs for sale
Season 1990-1991 Tropical Cyclone FIFI Track Map
Season 1990-1991 Summaries: [BoM-AU] [JTWC-AU] [JTWC-SIO] [JTWC-SPAC] [JTWC-SH]
<<- Previous TC | BoM 1990-1991 Season | Next TC ->>

click for intensity scale information  Lat/long Grid: Show Hide

 Date Labels: Show Hide

Bureau of Meteorology Tropical Cyclone Data

Name: FIFI
Number: 741 / 199091_09

15 Apr 1991 00:00 UTC to 20 Apr 1991 06:00 UTC

    date/time    lat    long    hPa   cat  kts
1991-04-15 00   10.8   103.2   1003         27          
1991-04-15 06   11.2   103.1   1002         27          
1991-04-15 12   11.6   103.0   1000         31          
1991-04-15 18   12.0   102.9   1000         31          
1991-04-16 00   12.2   102.8   1000         31          
1991-04-16 06   12.4   102.7    998         35          
1991-04-16 12   12.5   102.6    998         35          
1991-04-16 18   12.6   102.6    995    1    39          
1991-04-17 00   12.7   102.6    990    1    47          
1991-04-17 06   13.3   102.6    985    2    54          
1991-04-17 12   13.9   102.4    980    2    60          
1991-04-17 18   14.5   102.2    975    2    66          
1991-04-18 00   15.3   101.9    975    2    66          
1991-04-18 06   16.3   101.9    975    2    66          
1991-04-18 12   17.3   102.2    978    2    64          
1991-04-18 18   18.2   102.8    980    2    60          
1991-04-19 00   19.3   103.7    980    2    60          
1991-04-19 06   20.5   104.4    985    2    54          
1991-04-19 12   21.6   104.9    990    1    47          
1991-04-19 18   22.5   105.4   1000         31          
1991-04-20 00   23.4   105.9   1000         31          
1991-04-20 06   24.4   106.1   1002         27          
Winds are 10-min average.

Tropical cyclone tracks developed by Michael Bath using data from the Bureau of Meteorology and Google Maps.


[Australian Severe Weather index] [Copyright Notice] [Email Contacts] [Search This Site] [Privacy Policy]
Document: tropical_cyclone_fifi.htm Updated: 30 May 2013